Time;durP1;ratioP1;P1;durP2;ratioP2;P2;SDS_P1;SDS_P2;PMS_P1;PMS_P2;Temp;Humidity;BMP_temperature;BMP_pressure;BME280_temperature;BME280_humidity;BME280_pressure;Samples;Min_cycle;Max_cycle;Signal;HPM_P1;HPM_P2
2022/11/04 00:00:17;;;;;;;2.80;2.60;;;;;;;10.42;100.00;99312.38;5061792;28;20213;-77
2022/11/04 00:02:42;;;;;;;2.60;2.40;;;;;;;10.40;100.00;99320.19;5063324;28;20182;-75
2022/11/04 00:05:08;;;;;;;2.70;2.40;;;;;;;10.36;100.00;99319.34;5063434;28;20659;-76
2022/11/04 00:12:23;;;;;;;2.93;2.40;;;;;;;10.30;100.00;99316.91;5058008;28;20703;-77
2022/11/04 00:13:02;;;;;;;2.40;2.20;;;;;;;10.27;100.00;99319.56;5061556;28;20190;-76
2022/11/04 00:18:13;;;;;;;2.40;2.20;;;;;;;10.20;100.00;99318.88;5058703;28;20229;-75
2022/11/04 00:28:53;;;;;;;2.73;2.00;;;;;;;10.09;100.00;99367.38;5064108;28;20262;-76
2022/11/04 00:34:02;;;;;;;3.73;1.83;;;;;;;10.12;100.00;99367.31;5070796;28;20735;-75
2022/11/04 00:36:27;;;;;;;1.80;1.60;;;;;;;10.12;100.00;99367.31;5057145;28;20269;-76
2022/11/04 00:38:52;;;;;;;1.70;1.60;;;;;;;10.11;100.00;99363.03;5066054;28;20217;-76
2022/11/04 00:41:27;;;;;;;1.60;1.43;;;;;;;10.11;100.00;99364.75;5062970;28;20560;-76
2022/11/04 00:44:03;;;;;;;1.50;1.40;;;;;;;10.11;100.00;99385.44;5064480;28;20194;-77
2022/11/04 00:46:31;;;;;;;2.57;1.60;;;;;;;10.07;100.00;99380.31;5061223;28;20227;-77
2022/11/04 00:48:57;;;;;;;1.50;1.40;;;;;;;10.06;100.00;99388.13;5064809;28;20288;-77
2022/11/04 00:51:22;;;;;;;3.47;1.83;;;;;;;10.03;100.00;99395.94;5063022;28;20289;-77
2022/11/04 00:53:48;;;;;;;1.73;1.50;;;;;;;10.01;100.00;99397.69;5059714;28;20186;-76
2022/11/04 00:56:14;;;;;;;2.03;1.67;;;;;;;9.96;100.00;99400.38;5065128;28;20246;-75
2022/11/04 00:58:39;;;;;;;2.23;1.60;;;;;;;9.93;100.00;99391.84;5057561;28;20217;-76
2022/11/04 01:01:10;;;;;;;1.80;1.50;;;;;;;9.90;100.00;99387.63;5065741;28;20229;-76
2022/11/04 01:03:35;;;;;;;1.50;1.40;;;;;;;9.88;100.00;99392.78;5072853;28;20181;-76
2022/11/04 01:06:01;;;;;;;1.20;1.10;;;;;;;9.84;100.00;99391.16;5063264;28;20188;-75
2022/11/04 01:08:26;;;;;;;1.30;1.10;;;;;;;9.82;100.00;99395.53;5060134;28;20186;-75
2022/11/04 01:10:51;;;;;;;1.20;1.10;;;;;;;9.84;100.00;99392.91;5058966;28;20562;-76
2022/11/04 01:13:17;;;;;;;1.73;1.53;;;;;;;9.83;100.00;99392.03;5064616;28;20711;-76
2022/11/04 01:15:42;;;;;;;1.67;1.30;;;;;;;9.84;100.00;99404.06;5060376;28;20190;-76
2022/11/04 01:18:07;;;;;;;1.87;1.20;;;;;;;9.84;100.00;99388.56;5062310;28;21033;-77
2022/11/04 01:20:33;;;;;;;1.30;1.20;;;;;;;9.85;100.00;99386.84;5061148;28;20236;-76
2022/11/04 01:22:58;;;;;;;1.33;1.10;;;;;;;9.86;100.00;99378.22;5061932;28;20190;-76
2022/11/04 01:25:24;;;;;;;2.17;1.30;;;;;;;9.83;100.00;99386.84;5057924;28;20271;-76
2022/11/04 01:27:50;;;;;;;2.07;1.17;;;;;;;9.83;100.00;99378.28;5064301;28;20378;-77
2022/11/04 01:30:15;;;;;;;1.40;0.97;;;;;;;9.80;100.00;99378.31;5058348;28;20282;-75
2022/11/04 01:32:41;;;;;;;3.40;0.90;;;;;;;9.80;100.00;99386.06;5060162;28;20245;-77
2022/11/04 01:35:06;;;;;;;1.23;1.07;;;;;;;9.80;100.00;99392.13;5057734;28;20343;-75
2022/11/04 01:37:32;;;;;;;1.40;1.00;;;;;;;9.79;100.00;99385.25;5064559;28;20668;-76
2022/11/04 01:39:57;;;;;;;1.70;1.17;;;;;;;9.77;100.00;99384.41;5066594;28;20202;-75
2022/11/04 01:42:23;;;;;;;1.30;0.90;;;;;;;9.74;100.00;99393.09;5063004;28;20181;-76
2022/11/04 01:44:51;;;;;;;0.90;0.90;;;;;;;9.72;100.00;99384.50;5065692;28;20189;-75
2022/11/04 01:47:38;;;;;;;1.20;1.00;;;;;;;9.73;100.00;99395.69;5061487;28;20178;-76
2022/11/04 01:50:12;;;;;;;1.97;1.20;;;;;;;9.71;100.00;99394.88;5066885;28;20581;-77
2022/11/04 01:52:41;;;;;;;1.03;0.80;;;;;;;9.69;100.00;99402.66;5066064;28;20193;-76
2022/11/04 01:55:12;;;;;;;1.30;1.13;;;;;;;9.67;100.00;99393.25;5068233;28;20182;-76
2022/11/04 01:57:41;;;;;;;2.30;0.97;;;;;;;9.65;100.00;99397.59;5065632;28;20182;-76
2022/11/04 02:00:08;;;;;;;1.10;0.97;;;;;;;9.62;100.00;99398.47;5059762;28;20218;-76
2022/11/04 02:02:39;;;;;;;1.73;0.60;;;;;;;9.60;100.00;99401.09;5064751;28;20234;-77
2022/11/04 02:05:04;;;;;;;1.40;0.93;;;;;;;9.59;100.00;99395.97;5066069;28;20671;-76
2022/11/04 02:07:30;;;;;;;0.87;0.83;;;;;;;9.55;100.00;99392.56;5060861;28;20216;-76
2022/11/04 02:09:56;;;;;;;1.97;0.90;;;;;;;9.54;100.00;99390.88;5058682;28;20187;-75
2022/11/04 02:15:06;;;;;;;0.90;0.70;;;;;;;9.49;100.00;99391.84;5069436;28;20192;-75
2022/11/04 02:17:39;;;;;;;0.90;0.70;;;;;;;9.46;100.00;99392.75;5061900;28;20190;-75
2022/11/04 02:20:10;;;;;;;1.13;0.87;;;;;;;9.44;100.00;99391.94;5071050;28;20219;-75
2022/11/04 02:23:13;;;;;;;0.87;0.83;;;;;;;9.43;100.00;99395.41;5073706;28;20204;-76
2022/11/04 02:25:48;;;;;;;1.30;1.00;;;;;;;9.39;100.00;99389.44;5063666;28;20193;-76
2022/11/04 02:28:16;;;;;;;1.00;0.90;;;;;;;9.40;100.00;99383.41;5065319;28;20308;-76
2022/11/04 02:30:53;;;;;;;1.10;1.00;;;;;;;9.37;100.00;99393.78;5061790;28;20206;-75
2022/11/04 02:33:26;;;;;;;2.13;1.30;;;;;;;9.35;100.00;99387.78;5061798;28;20186;-76
2022/11/04 02:35:57;;;;;;;1.23;1.07;;;;;;;9.33;100.00;99379.22;5054841;28;20239;-76
2022/11/04 02:38:31;;;;;;;1.17;1.03;;;;;;;9.32;100.00;99379.25;5061384;28;20191;-76
2022/11/04 02:40:57;;;;;;;1.37;1.13;;;;;;;9.32;100.00;99384.41;5069434;28;20174;-77
2022/11/04 02:43:31;;;;;;;1.80;1.20;;;;;;;9.32;100.00;99384.41;5066796;28;20668;-76
2022/11/04 02:46:15;;;;;;;2.03;1.10;;;;;;;9.27;100.00;99379.34;5067606;28;20258;-75
2022/11/04 02:48:47;;;;;;;2.27;1.30;;;;;;;9.26;100.00;99387.97;5058046;28;20193;-76
2022/11/04 02:51:25;;;;;;;2.20;1.17;;;;;;;9.26;100.00;99393.13;5066377;28;20182;-76
2022/11/04 02:54:02;;;;;;;1.37;1.10;;;;;;;9.25;100.00;99394.84;5065821;28;20588;-76
2022/11/04 02:56:29;;;;;;;1.17;1.00;;;;;;;9.23;100.00;99390.59;5060570;28;20204;-76
2022/11/04 02:59:01;;;;;;;1.53;0.90;;;;;;;9.22;100.00;99386.31;5062708;28;20218;-76
2022/11/04 03:01:33;;;;;;;1.60;0.87;;;;;;;9.20;100.00;99388.94;5070654;28;20702;-76
2022/11/04 03:04:13;;;;;;;1.20;1.03;;;;;;;9.19;100.00;99400.13;5066876;28;20269;-76
2022/11/04 03:06:43;;;;;;;1.80;1.00;;;;;;;9.20;100.00;99398.41;5061474;28;20185;-76
2022/11/04 03:09:12;;;;;;;1.00;0.90;;;;;;;9.17;100.00;99396.72;5069464;28;20207;-76
2022/11/04 03:11:42;;;;;;;1.27;0.90;;;;;;;9.17;100.00;99385.53;5060155;28;20181;-76
2022/11/04 03:14:30;;;;;;;1.40;0.90;;;;;;;9.16;100.00;99364.03;5063499;28;20193;-76
2022/11/04 03:17:02;;;;;;;1.20;1.07;;;;;;;9.13;100.00;99372.72;5063966;28;20277;-77
2022/11/04 03:19:33;;;;;;;1.53;1.00;;;;;;;9.13;100.00;99374.41;5060966;28;20596;-76
2022/11/04 03:22:08;;;;;;;1.23;1.10;;;;;;;9.12;100.00;99375.28;5066917;28;20185;-77
2022/11/04 03:24:34;;;;;;;1.37;0.80;;;;;;;9.12;100.00;99383.91;5065148;28;20259;-75
2022/11/04 03:27:01;;;;;;;1.53;1.10;;;;;;;9.11;100.00;99378.75;5066974;28;20173;-76
2022/11/04 03:29:32;;;;;;;3.57;0.90;;;;;;;9.11;100.00;99377.03;5056983;28;20240;-76
2022/11/04 03:32:00;;;;;;;2.07;1.03;;;;;;;9.09;100.00;99383.09;5060174;28;20182;-76
2022/11/04 03:34:26;;;;;;;1.70;0.90;;;;;;;9.05;100.00;99391.78;5065090;28;20662;-76
2022/11/04 03:36:51;;;;;;;1.30;1.10;;;;;;;9.02;100.00;99386.66;5063322;28;20182;-77
2022/11/04 03:39:17;;;;;;;1.27;0.80;;;;;;;8.99;100.00;99387.59;5064159;28;20213;-76
2022/11/04 03:42:18;;;;;;;2.07;1.03;;;;;;;8.98;100.00;99385.88;5067857;28;20685;-76
2022/11/04 03:44:46;;;;;;;1.50;0.90;;;;;;;8.97;100.00;99404.81;5050554;28;20193;-75
2022/11/04 03:47:12;;;;;;;1.77;1.10;;;;;;;8.95;100.00;99381.59;5059032;28;20186;-76
2022/11/04 03:49:38;;;;;;;1.87;1.00;;;;;;;8.95;100.00;99386.75;5072747;28;20203;-77
2022/11/04 03:52:03;;;;;;;1.37;1.27;;;;;;;8.92;100.00;99392.00;5061547;28;20266;-76
2022/11/04 03:54:34;;;;;;;1.47;1.03;;;;;;;8.91;100.00;99400.59;5064156;28;20201;-76
2022/11/04 03:57:14;;;;;;;1.30;1.00;;;;;;;8.91;100.00;99397.16;5068367;28;20232;-77
2022/11/04 03:59:49;;;;;;;1.67;1.30;;;;;;;8.89;100.00;99373.09;5060752;28;20721;-76
2022/11/04 04:02:42;;;;;;;2.53;1.20;;;;;;;8.85;100.00;99377.47;5064368;28;20180;-75
2022/11/04 04:05:20;;;;;;;2.07;1.07;;;;;;;8.82;100.00;99377.53;5058900;28;20837;-76
2022/11/04 04:07:51;;;;;;;1.83;0.90;;;;;;;8.80;100.00;99374.97;5081472;28;20191;-76
2022/11/04 04:10:39;;;;;;;1.00;0.90;;;;;;;8.80;100.00;99371.53;5081660;28;20254;-77
2022/11/04 04:13:35;;;;;;;0.80;0.80;;;;;;;8.79;100.00;99369.81;5067738;28;20191;-76
2022/11/04 04:16:01;;;;;;;1.70;0.97;;;;;;;8.76;100.00;99363.00;5069601;28;20182;-76
2022/11/04 04:18:32;;;;;;;1.20;1.10;;;;;;;8.76;100.00;99367.31;5069193;28;20762;-76
2022/11/04 04:21:03;;;;;;;1.10;0.90;;;;;;;8.74;100.00;99361.34;5052837;28;20186;-76
2022/11/04 04:29:05;;;;;;;1.27;1.00;;;;;;;8.70;100.00;99357.94;5065117;28;20309;-76
2022/11/04 04:31:49;;;;;;;2.13;1.10;;;;;;;8.70;100.00;99352.78;5058563;28;20875;-75
2022/11/04 04:34:17;;;;;;;1.10;0.90;;;;;;;8.68;100.00;99359.72;5058473;28;20173;-76
2022/11/04 04:37:29;;;;;;;0.80;0.80;;;;;;;8.67;100.00;99371.75;5061876;28;20590;-77
2022/11/04 04:45:30;;;;;;;1.90;0.77;;;;;;;8.57;100.00;99364.16;5059972;28;20653;-75
2022/11/04 04:47:56;;;;;;;1.17;0.93;;;;;;;8.55;100.00;99371.94;5059155;28;20603;-78
2022/11/04 04:50:26;;;;;;;2.73;1.10;;;;;;;8.52;100.00;99362.53;5061641;28;20199;-75
2022/11/04 04:52:53;;;;;;;1.67;0.77;;;;;;;8.49;100.00;99357.41;5063302;28;20185;-76
2022/11/04 04:55:19;;;;;;;1.20;0.83;;;;;;;8.48;100.00;99362.56;5059816;28;20205;-76
2022/11/04 04:57:44;;;;;;;2.07;1.90;;;;;;;8.44;100.00;99355.75;5058760;28;20185;-76
2022/11/04 05:00:16;;;;;;;5.00;4.60;;;;;;;8.42;100.00;99354.91;5059174;28;20216;-76
2022/11/04 05:02:42;;;;;;;5.33;4.83;;;;;;;8.41;100.00;99348.06;5058460;28;20831;-76
2022/11/04 05:05:08;;;;;;;4.50;4.20;;;;;;;8.38;100.00;99348.97;5062449;28;20186;-77
2022/11/04 05:07:33;;;;;;;3.83;3.53;;;;;;;8.36;100.00;99345.56;5063731;28;20203;-76
2022/11/04 05:09:59;;;;;;;3.00;2.80;;;;;;;8.36;100.00;99345.56;5064536;28;20255;-77
2022/11/04 05:12:24;;;;;;;2.20;2.10;;;;;;;8.33;100.00;99343.84;5046652;28;20186;-75
2022/11/04 05:14:50;;;;;;;2.30;2.10;;;;;;;8.35;100.00;99341.28;5058123;28;20181;-76
2022/11/04 05:17:15;;;;;;;1.50;1.40;;;;;;;8.36;100.00;99336.06;5065451;28;20197;-78
2022/11/04 05:19:40;;;;;;;1.70;1.60;;;;;;;8.41;100.00;99337.75;5057440;28;20214;-75
2022/11/04 05:22:06;;;;;;;1.77;1.67;;;;;;;8.45;100.00;99327.34;5066933;28;20182;-76
2022/11/04 05:24:31;;;;;;;2.27;1.63;;;;;;;8.51;100.00;99326.44;5070083;28;20188;-78
2022/11/04 05:26:57;;;;;;;1.90;1.60;;;;;;;8.57;100.00;99316.03;5062303;28;20182;-76
2022/11/04 05:29:22;;;;;;;1.30;1.20;;;;;;;8.65;100.00;99310.75;5059877;28;20210;-76
2022/11/04 05:31:47;;;;;;;1.57;1.10;;;;;;;8.68;100.00;99301.22;5060271;28;20190;-76
2022/11/04 05:34:13;;;;;;;1.33;1.17;;;;;;;8.71;100.00;99302.88;5060880;28;20199;-78
2022/11/04 05:36:39;;;;;;;1.23;1.00;;;;;;;8.69;100.00;99296.94;5061051;28;20215;-77
2022/11/04 05:39:05;;;;;;;0.87;0.83;;;;;;;8.65;100.00;99298.69;5063487;28;20221;-77
2022/11/04 05:41:32;;;;;;;1.67;1.30;;;;;;;8.59;100.00;99306.53;5060384;28;20537;-75
2022/11/04 05:44:00;;;;;;;1.80;1.70;;;;;;;8.56;100.00;99305.72;5051127;28;20197;-76
2022/11/04 05:46:26;;;;;;;1.60;1.50;;;;;;;8.51;100.00;99310.97;5060865;28;20649;-76
2022/11/04 05:48:52;;;;;;;1.47;1.37;;;;;;;8.49;100.00;99308.41;5060452;28;20198;-76
2022/11/04 05:51:23;;;;;;;2.80;1.73;;;;;;;8.47;100.00;99324.78;5059924;28;20194;-76
2022/11/04 05:53:49;;;;;;;1.33;1.23;;;;;;;8.43;100.00;99325.69;5063325;28;20186;-75
2022/11/04 05:56:14;;;;;;;1.67;1.40;;;;;;;8.41;100.00;99317.13;5058950;28;20196;-76
2022/11/04 05:58:40;;;;;;;1.60;1.30;;;;;;;8.38;100.00;99320.59;5063874;28;20177;-75
2022/11/04 06:01:11;;;;;;;1.57;1.27;;;;;;;8.35;100.00;99325.81;5067531;28;20593;-76
2022/11/04 06:03:37;;;;;;;1.10;1.00;;;;;;;8.30;100.00;99325.00;5063920;28;20210;-75
2022/11/04 06:06:02;;;;;;;1.37;1.27;;;;;;;8.27;100.00;99325.91;5062195;28;20213;-76
2022/11/04 06:08:29;;;;;;;1.20;0.90;;;;;;;8.25;100.00;99322.50;5060129;28;20186;-76
2022/11/04 06:10:54;;;;;;;1.63;1.17;;;;;;;8.22;100.00;99331.16;5061697;28;20613;-76
2022/11/04 06:13:19;;;;;;;1.93;1.43;;;;;;;8.20;100.00;99332.88;5067059;28;20214;-75
2022/11/04 06:15:45;;;;;;;1.50;1.40;;;;;;;8.17;100.00;99324.31;5066411;28;20186;-78
2022/11/04 06:18:10;;;;;;;1.67;1.40;;;;;;;8.16;100.00;99326.06;5070929;28;20208;-75
2022/11/04 06:20:35;;;;;;;2.70;1.63;;;;;;;8.15;100.00;99328.69;5055065;28;20673;-76
2022/11/04 06:23:01;;;;;;;1.33;1.07;;;;;;;8.15;100.00;99334.66;5065641;28;20659;-75
2022/11/04 06:25:26;;;;;;;1.80;1.13;;;;;;;8.15;100.00;99332.09;5074623;28;20610;-76
2022/11/04 06:27:52;;;;;;;1.10;0.90;;;;;;;8.18;100.00;99328.59;5069465;28;20209;-77
2022/11/04 06:30:18;;;;;;;1.47;0.90;;;;;;;8.22;100.00;99335.44;5065278;28;20261;-76
2022/11/04 06:32:43;;;;;;;1.27;0.90;;;;;;;8.25;100.00;99332.81;5064723;28;20277;-76
2022/11/04 06:35:08;;;;;;;1.10;0.90;;;;;;;8.29;100.00;99323.31;5066086;28;20273;-76
2022/11/04 06:37:34;;;;;;;1.17;0.90;;;;;;;8.34;100.00;99326.66;5057607;28;20214;-76
2022/11/04 06:39:59;;;;;;;1.17;0.90;;;;;;;8.37;100.00;99319.72;5056435;28;20222;-76
2022/11/04 06:42:25;;;;;;;1.83;0.80;;;;;;;8.45;100.00;99323.94;5057133;28;20189;-76
2022/11/04 06:44:51;;;;;;;1.27;0.90;;;;;;;8.50;100.00;99319.56;5058176;28;20186;-76
2022/11/04 06:47:17;;;;;;;1.10;0.80;;;;;;;8.58;100.00;99322.03;5066932;28;20592;-75
2022/11/04 06:49:42;;;;;;;1.10;0.70;;;;;;;8.63;100.00;99331.38;5072871;28;20299;-76
2022/11/04 06:52:08;;;;;;;0.90;0.70;;;;;;;8.69;100.00;99333.03;5066116;28;20211;-76
2022/11/04 06:54:33;;;;;;;1.30;0.90;;;;;;;8.73;100.00;99339.81;5062373;28;20208;-76
2022/11/04 06:56:59;;;;;;;2.50;0.93;;;;;;;8.78;100.00;99344.91;5057308;28;20182;-76
2022/11/04 06:59:24;;;;;;;1.33;0.80;;;;;;;8.82;100.00;99343.97;5059086;28;20211;-76
2022/11/04 07:01:50;;;;;;;1.03;0.80;;;;;;;8.88;100.00;99351.63;5068325;28;20181;-75
2022/11/04 07:04:16;;;;;;;1.13;0.80;;;;;;;8.93;100.00;99354.97;5062844;28;20174;-76
2022/11/04 07:06:42;;;;;;;1.63;0.90;;;;;;;8.96;100.00;99357.50;5065998;28;20265;-76
2022/11/04 07:09:09;;;;;;;1.50;0.90;;;;;;;9.00;100.00;99361.72;5067878;28;20256;-75
2022/11/04 07:11:35;;;;;;;0.70;0.60;;;;;;;9.06;100.00;99362.50;5073666;28;20181;-75
2022/11/04 07:14:01;;;;;;;0.80;0.70;;;;;;;9.12;100.00;99363.25;5073769;28;20269;-76
2022/11/04 07:16:26;;;;;;;1.40;0.80;;;;;;;9.18;100.00;99372.63;5059974;28;20270;-75
2022/11/04 07:18:55;;;;;;;1.27;0.80;;;;;;;9.26;100.00;99367.31;5070662;28;20284;-76
2022/11/04 07:21:20;;;;;;;0.80;0.60;;;;;;;9.33;100.00;99371.47;5062887;28;20193;-76
2022/11/04 07:23:46;;;;;;;0.90;0.77;;;;;;;9.40;100.00;99362.75;5067991;28;20189;-76
2022/11/04 07:26:11;;;;;;;0.80;0.73;;;;;;;9.48;100.00;99362.59;5066966;28;20184;-75
2022/11/04 07:28:37;;;;;;;0.83;0.70;;;;;;;9.56;100.00;99362.44;5060983;28;20281;-76
2022/11/04 07:31:05;;;;;;;1.10;0.70;;;;;;;9.64;100.00;99365.72;5066588;28;20301;-75
2022/11/04 07:33:32;;;;;;;1.43;0.80;;;;;;;9.72;100.00;99365.56;5075324;28;20191;-76
2022/11/04 07:35:58;;;;;;;1.03;0.80;;;;;;;9.81;100.00;99364.53;5080001;28;20698;-76
2022/11/04 07:38:23;;;;;;;1.30;0.97;;;;;;;9.89;100.00;99357.47;5070904;28;20186;-76
2022/11/04 07:40:49;;;;;;;1.00;0.70;;;;;;;9.96;100.00;99353.88;5069098;28;20210;-77
2022/11/04 07:43:15;;;;;;;0.73;0.70;;;;;;;10.02;100.00;99350.28;5056288;28;20193;-76
2022/11/04 07:45:40;;;;;;;0.80;0.70;;;;;;;10.07;100.00;99363.97;5086397;28;20264;-77
2022/11/04 07:48:06;;;;;;;1.43;0.83;;;;;;;10.09;100.00;99358.75;5065214;28;20623;-77
2022/11/04 07:50:32;;;;;;;1.10;0.70;;;;;;;10.11;100.00;99354.41;5072668;28;20274;-75
2022/11/04 07:52:58;;;;;;;1.30;0.77;;;;;;;10.12;100.00;99349.22;5062150;28;20193;-75
2022/11/04 07:55:24;;;;;;;1.37;0.73;;;;;;;10.18;100.00;99351.66;5070454;28;20204;-76
2022/11/04 07:57:49;;;;;;;1.30;0.90;;;;;;;10.21;100.00;99345.56;5064580;28;21100;-77
2022/11/04 08:00:15;;;;;;;1.57;0.77;;;;;;;10.27;100.00;99340.25;5073966;28;20210;-76
2022/11/04 08:02:45;;;;;;;0.90;0.77;;;;;;;10.34;100.00;99330.63;5077963;28;20186;-78
2022/11/04 08:05:14;;;;;;;0.93;0.80;;;;;;;10.42;100.00;99327.88;5064785;28;20241;-77
2022/11/04 08:07:40;;;;;;;0.93;0.63;;;;;;;10.52;100.00;99331.94;5070710;28;20626;-76
2022/11/04 08:10:07;;;;;;;0.50;0.50;;;;;;;10.63;100.00;99332.56;5069111;28;20734;-77
2022/11/04 08:12:32;;;;;;;1.00;0.90;;;;;;;10.74;100.00;99328.84;5060167;28;20182;-76
2022/11/04 08:14:58;;;;;;;1.10;0.73;;;;;;;10.85;100.00;99321.66;5074651;28;20175;-76
2022/11/04 08:17:24;;;;;;;0.80;0.73;;;;;;;10.95;100.00;99323.13;5057937;28;20202;-76
2022/11/04 08:19:49;;;;;;;1.27;0.80;;;;;;;11.04;100.00;99328.94;5062860;28;20206;-77
2022/11/04 08:22:14;;;;;;;1.03;0.73;;;;;;;11.13;100.00;99319.19;5060902;28;20186;-77
2022/11/04 08:24:40;;;;;;;1.17;0.63;;;;;;;11.22;100.00;99318.09;5061286;28;20190;-77
2022/11/04 08:27:08;;;;;;;2.50;0.77;;;;;;;11.29;100.00;99327.38;5067759;28;20205;-77
2022/11/04 08:29:35;;;;;;;1.33;0.90;;;;;;;11.37;100.00;99322.00;5057818;28;20220;-76
2022/11/04 08:32:01;;;;;;;0.93;0.60;;;;;;;11.44;100.00;99314.91;5058743;28;20217;-75
2022/11/04 08:34:26;;;;;;;1.00;0.80;;;;;;;11.54;100.00;99312.91;5057884;28;20182;-76
2022/11/04 08:36:52;;;;;;;1.93;0.90;;;;;;;11.64;100.00;99311.75;5061128;28;20208;-75
2022/11/04 08:39:18;;;;;;;1.17;0.90;;;;;;;11.81;100.00;99305.19;5061559;28;20241;-77
2022/11/04 08:41:44;;;;;;;1.73;1.10;;;;;;;11.98;100.00;99309.91;5071533;28;20214;-77
2022/11/04 08:44:13;;;;;;;1.67;1.23;;;;;;;12.15;100.00;99310.25;5060193;28;20204;-76
2022/11/04 08:46:40;;;;;;;1.67;1.10;;;;;;;12.29;100.00;99309.81;5063329;28;20184;-76
2022/11/04 08:49:06;;;;;;;1.80;1.00;;;;;;;12.40;100.00;99306.88;5067187;28;20272;-77
2022/11/04 08:51:33;;;;;;;1.17;1.03;;;;;;;12.52;100.00;99308.25;5061886;28;20191;-76
2022/11/04 08:53:59;;;;;;;2.33;1.40;;;;;;;12.67;100.00;99309.47;5063586;28;20695;-78
2022/11/04 08:56:28;;;;;;;1.60;1.10;;;;;;;12.76;100.00;99303.97;5065123;28;20190;-77
2022/11/04 08:58:54;;;;;;;2.57;1.27;;;;;;;12.83;100.00;99298.56;5052515;28;20293;-76
2022/11/04 09:01:20;;;;;;;3.23;1.20;;;;;;;12.80;100.00;99295.16;5065469;28;20274;-77
2022/11/04 09:03:46;;;;;;;1.87;1.30;;;;;;;12.76;100.00;99303.97;5059271;28;20182;-76
2022/11/04 09:06:16;;;;;;;1.90;1.10;;;;;;;12.72;100.00;99310.16;5063397;28;20239;-77
2022/11/04 09:08:42;;;;;;;1.60;1.20;;;;;;;12.71;100.00;99311.06;5061483;28;20229;-76
2022/11/04 09:11:11;;;;;;;1.97;1.13;;;;;;;12.70;100.00;99327.53;5053627;28;20181;-76
2022/11/04 09:13:37;;;;;;;1.63;1.10;;;;;;;12.71;100.00;99326.63;5063458;28;20181;-77
2022/11/04 09:16:03;;;;;;;1.77;1.00;;;;;;;12.80;100.00;99328.91;5076125;28;20947;-76
2022/11/04 09:18:29;;;;;;;2.37;1.50;;;;;;;12.91;100.00;99328.56;5065619;28;20184;-76
2022/11/04 09:20:54;;;;;;;2.57;2.37;;;;;;;12.99;100.00;99320.50;5072877;28;20205;-76
2022/11/04 09:23:20;;;;;;;1.90;1.40;;;;;;;13.13;100.00;99316.56;5067064;28;20323;-76
2022/11/04 09:25:45;;;;;;;2.03;1.20;;;;;;;13.30;100.00;99324.63;5062499;28;20262;-77
2022/11/04 09:28:10;;;;;;;3.53;1.47;;;;;;;13.50;100.00;99323.09;5067368;28;20199;-76
2022/11/04 09:30:36;;;;;;;1.80;1.10;;;;;;;13.68;100.00;99332.81;5062344;28;20561;-77
2022/11/04 09:33:02;;;;;;;2.73;1.27;;;;;;;13.84;100.00;99335.69;5062210;28;20205;-77
2022/11/04 09:35:28;;;;;;;2.90;1.20;;;;;;;14.00;100.00;99335.09;5059602;28;21149;-77
2022/11/04 09:37:54;;;;;;;1.50;0.80;;;;;;;14.14;99.80;99335.41;5056304;28;20182;-76
2022/11/04 09:40:23;;;;;;;2.70;1.07;;;;;;;14.28;98.92;99341.84;5061728;28;20260;-77
2022/11/04 09:43:06;;;;;;;2.17;0.90;;;;;;;14.43;98.68;99336.00;5058934;28;20185;-76
2022/11/04 09:45:33;;;;;;;2.53;1.10;;;;;;;14.56;98.21;99344.19;5069422;28;20694;-76
2022/11/04 09:48:03;;;;;;;2.70;1.10;;;;;;;14.58;97.38;99351.94;5072981;28;20184;-78
2022/11/04 09:50:45;;;;;;;3.03;1.20;;;;;;;14.56;97.18;99346.78;5060035;28;20197;-77
2022/11/04 09:53:19;;;;;;;1.27;0.80;;;;;;;14.53;97.20;99341.69;5068392;28;20193;-77
2022/11/04 09:55:59;;;;;;;1.73;0.83;;;;;;;14.54;96.66;99337.31;5069099;28;20886;-77
2022/11/04 09:58:24;;;;;;;2.30;0.90;;;;;;;14.49;97.03;99350.53;5066876;28;20173;-76
2022/11/04 10:00:56;;;;;;;1.70;0.97;;;;;;;14.43;97.30;99362.03;5065368;28;20720;-77
2022/11/04 10:03:42;;;;;;;1.87;1.00;;;;;;;14.32;97.64;99359.03;5069434;28;20185;-76
2022/11/04 10:06:29;;;;;;;1.30;0.83;;;;;;;14.16;98.46;99366.56;5068868;28;20189;-76
2022/11/04 10:09:10;;;;;;;2.33;1.13;;;;;;;14.02;98.15;99367.13;5070565;28;20235;-77
2022/11/04 10:11:44;;;;;;;2.40;1.47;;;;;;;13.90;98.61;99370.19;5073119;28;20204;-77
2022/11/04 10:14:21;;;;;;;4.43;1.77;;;;;;;13.80;98.80;99361.88;5072236;28;20383;-76
2022/11/04 10:16:56;;;;;;;3.50;1.40;;;;;;;13.71;98.55;99357.84;5061810;28;20181;-77
2022/11/04 10:19:41;;;;;;;2.37;1.20;;;;;;;13.65;98.73;99358.94;5070227;28;20207;-76
2022/11/04 10:22:22;;;;;;;2.73;1.10;;;;;;;13.66;99.19;99349.38;5065518;28;20250;-76
2022/11/04 10:25:28;;;;;;;2.50;1.10;;;;;;;13.72;99.05;99351.75;5060244;28;20170;-77
2022/11/04 10:27:53;;;;;;;2.03;0.97;;;;;;;13.77;99.30;99341.19;5066653;28;20196;-76
2022/11/04 10:30:24;;;;;;;3.33;0.93;;;;;;;13.83;98.83;99346.16;5083756;28;20201;-76
2022/11/04 10:32:58;;;;;;;1.97;1.03;;;;;;;13.83;98.57;99336.59;5062789;28;20650;-76
2022/11/04 10:35:39;;;;;;;2.20;1.13;;;;;;;13.84;98.24;99345.25;5073327;28;20180;-77
2022/11/04 10:38:43;;;;;;;2.50;1.10;;;;;;;13.86;98.44;99341.69;5071991;28;20194;-76
2022/11/04 10:41:25;;;;;;;2.00;0.80;;;;;;;13.92;98.59;99339.72;5069509;28;20288;-76
2022/11/04 10:43:57;;;;;;;1.60;0.70;;;;;;;13.93;98.54;99334.50;5065882;28;20233;-76
2022/11/04 10:46:53;;;;;;;2.53;1.13;;;;;;;13.97;98.28;99336.09;5059999;28;20205;-75
2022/11/04 10:49:36;;;;;;;3.93;1.30;;;;;;;14.00;97.43;99337.72;5061301;28;21022;-76
2022/11/04 10:52:01;;;;;;;2.70;1.00;;;;;;;14.02;97.50;99339.34;5069403;28;20212;-76
2022/11/04 10:54:29;;;;;;;2.07;1.10;;;;;;;14.05;97.02;99341.00;5074191;28;20217;-76
2022/11/04 10:56:55;;;;;;;1.67;0.70;;;;;;;14.08;97.49;99342.63;5065885;28;20189;-77
2022/11/04 10:59:49;;;;;;;2.57;1.00;;;;;;;14.10;97.05;99340.81;5075362;28;20960;-77
2022/11/04 11:02:14;;;;;;;1.27;0.60;;;;;;;14.07;96.86;99333.94;5076723;28;20195;-75
2022/11/04 11:04:43;;;;;;;1.20;0.67;;;;;;;14.08;97.05;99337.41;5077175;28;20299;-76
2022/11/04 11:07:10;;;;;;;1.30;0.60;;;;;;;14.10;97.18;99344.25;5067315;28;20264;-75
2022/11/04 11:09:41;;;;;;;1.73;0.80;;;;;;;14.17;97.26;99345.72;5080784;28;20200;-75
2022/11/04 11:12:13;;;;;;;1.57;0.50;;;;;;;14.26;97.23;99344.50;5064536;28;20186;-75
2022/11/04 11:14:40;;;;;;;0.83;0.50;;;;;;;14.42;96.97;99333.47;5068814;28;20765;-75
2022/11/04 11:17:14;;;;;;;1.80;0.67;;;;;;;14.58;96.58;99333.69;5071872;28;20197;-75
2022/11/04 11:20:13;;;;;;;1.90;0.80;;;;;;;14.63;95.57;99332.59;5059968;28;20202;-74
2022/11/04 11:22:40;;;;;;;2.47;0.83;;;;;;;14.67;95.89;99329.88;5061863;28;20276;-75
2022/11/04 11:25:24;;;;;;;1.57;0.80;;;;;;;14.74;95.45;99333.97;5069691;28;20186;-73
2022/11/04 11:28:02;;;;;;;1.90;0.90;;;;;;;14.78;94.95;99327.69;5065677;28;22257;-76
2022/11/04 11:30:33;;;;;;;2.47;0.73;;;;;;;14.87;94.84;99323.84;5070029;28;20334;-75
2022/11/04 11:33:05;;;;;;;1.57;0.80;;;;;;;14.97;94.16;99325.19;5066824;28;20185;-75
2022/11/04 11:35:41;;;;;;;2.27;0.97;;;;;;;15.00;92.95;99318.97;5090759;28;20554;-75
2022/11/04 11:38:26;;;;;;;1.80;0.90;;;;;;;14.98;93.60;99321.63;5087415;28;20173;-74
2022/11/04 11:41:02;;;;;;;0.97;0.70;;;;;;;14.96;93.69;99314.81;5082468;28;20209;-76
2022/11/04 11:43:30;;;;;;;2.03;0.90;;;;;;;14.92;94.00;99308.88;5082128;28;20185;-73
2022/11/04 11:45:58;;;;;;;1.30;0.60;;;;;;;14.94;94.00;99313.13;5085277;28;20263;-74
2022/11/04 11:48:41;;;;;;;1.67;0.53;;;;;;;14.99;93.53;99304.25;5081619;28;20178;-75
2022/11/04 11:51:11;;;;;;;1.30;0.70;;;;;;;15.04;93.54;99315.34;5086447;28;20250;-74
2022/11/04 11:53:39;;;;;;;0.90;0.77;;;;;;;15.11;93.74;99306.31;5075353;28;20182;-75
2022/11/04 11:56:22;;;;;;;0.93;0.50;;;;;;;15.20;93.31;99300.69;5060749;28;20214;-75
2022/11/04 11:59:14;;;;;;;1.70;0.97;;;;;;;15.30;92.88;99298.53;5061656;28;20565;-76
2022/11/04 12:01:45;;;;;;;0.50;0.50;;;;;;;15.41;92.59;99299.84;5063732;28;20190;-74
2022/11/04 12:04:12;;;;;;;1.33;0.70;;;;;;;15.42;92.29;99293.72;5064889;28;20189;-75
2022/11/04 12:06:49;;;;;;;1.83;0.77;;;;;;;15.43;92.08;99298.84;5078811;28;20272;-75
2022/11/04 12:10:08;;;;;;;1.83;0.63;;;;;;;15.47;91.82;99299.56;5068220;28;20821;-75
2022/11/04 12:12:57;;;;;;;1.20;0.60;;;;;;;15.41;91.87;99289.41;4999591;28;20213;-75
2022/11/04 12:15:55;;;;;;;2.10;0.70;;;;;;;15.22;91.46;99285.84;4987344;28;20219;-76